Saint-Fabien, Canada
Current Conditions -  °F | °C
As of 12:00 PM on Friday 19 Dec 2014 (Local Time) from CYYY Reporting Station
Few Clouds Few Clouds  
Wind Chill: 15°   Ceiling: Unl
Heat Index: 25°   Visibility: 30mi
Dew Point: 12°   Wind: 9mph
Humidity: 59%   Direction: 340°NNW
Pressure: 29.92"   Gusts: NA
Location:  48.28°N, 68.87°W
Report Text: CYYY 191700Z 34008KT 30SM FEW100 FEW220 M04/M11 A2992 RMK AC1CI1 SLP137
Loading
Personal Weather Stations






























Interactive Weather Map New forecast layout! Learn more

10-Day Weather Forecast

Advertisements
Track Severe Weather on mobile